createdAt,value
2022-11-07T00:00:15.881Z,100898.97
2022-11-07T00:03:01.646Z,100906.03
2022-11-07T00:05:31.007Z,100900.72
2022-11-07T00:08:00.071Z,100902.47
2022-11-07T00:10:29.457Z,100902.44
2022-11-07T00:12:58.386Z,100904.19
2022-11-07T00:15:29.139Z,100905.94
2022-11-07T00:17:59.698Z,100897.97
2022-11-07T00:20:28.997Z,100896.19
2022-11-07T00:22:57.929Z,100896.19
2022-11-07T00:25:27.476Z,100891.78
2022-11-07T00:27:56.407Z,100890.03
2022-11-07T00:30:25.656Z,100895.34
2022-11-07T00:33:00.023Z,100891.81
2022-11-07T00:35:29.926Z,100896.25
2022-11-07T00:37:58.995Z,100892.75
2022-11-07T00:40:28.250Z,100881.28
2022-11-07T00:42:57.199Z,100884.84
2022-11-07T00:45:26.422Z,100884.00
2022-11-07T00:47:56.699Z,100880.50
2022-11-07T00:50:26.161Z,100877.91
2022-11-07T00:52:58.072Z,100876.16
2022-11-07T00:55:27.590Z,100873.56
2022-11-07T00:57:57.607Z,100856.88
2022-11-07T01:00:26.898Z,100853.34
2022-11-07T01:03:11.761Z,100854.28
2022-11-07T01:05:41.362Z,100838.47
2022-11-07T01:08:10.472Z,100838.50
2022-11-07T01:10:43.590Z,100834.13
2022-11-07T01:13:13.032Z,100829.75
2022-11-07T01:15:42.713Z,100826.25
2022-11-07T01:18:13.302Z,100826.28
2022-11-07T01:20:42.661Z,100812.19
2022-11-07T01:23:11.820Z,100808.69
2022-11-07T01:25:42.046Z,100810.50
2022-11-07T01:28:11.335Z,100802.59
2022-11-07T01:30:41.570Z,100798.19
2022-11-07T01:33:13.158Z,100803.50
2022-11-07T01:35:43.517Z,100790.28
2022-11-07T01:38:12.486Z,100791.19
2022-11-07T01:40:59.126Z,100792.09
2022-11-07T01:43:43.787Z,100797.41
2022-11-07T01:46:13.084Z,100794.75
2022-11-07T01:48:47.874Z,100785.97
2022-11-07T01:51:18.223Z,100782.44
2022-11-07T01:53:47.719Z,100784.22
2022-11-07T01:56:20.703Z,100778.06
2022-11-07T01:58:50.005Z,100775.44
2022-11-07T02:01:19.782Z,100764.88
2022-11-07T02:03:51.313Z,100771.91
2022-11-07T02:06:25.455Z,100771.94
2022-11-07T02:08:55.655Z,100764.88
2022-11-07T02:11:25.453Z,100765.78
2022-11-07T02:13:54.974Z,100763.16
2022-11-07T02:16:25.098Z,100762.28
2022-11-07T02:18:55.852Z,100744.66
2022-11-07T02:21:36.210Z,100740.28
2022-11-07T02:24:18.848Z,100747.34
2022-11-07T02:26:48.429Z,100742.06
2022-11-07T02:29:17.886Z,100732.34
2022-11-07T02:31:47.158Z,100729.72
2022-11-07T02:34:16.429Z,100732.38
2022-11-07T02:36:45.867Z,100735.03
2022-11-07T02:39:14.901Z,100741.22
2022-11-07T02:41:46.066Z,100730.66
2022-11-07T02:44:15.605Z,100740.34
2022-11-07T02:46:44.884Z,100731.53
2022-11-07T02:49:14.168Z,100725.34
2022-11-07T02:51:43.475Z,100727.13
2022-11-07T02:54:12.528Z,100720.06
2022-11-07T02:56:41.727Z,100735.94
2022-11-07T02:59:12.212Z,100733.28
2022-11-07T03:01:41.717Z,100728.84
2022-11-07T03:04:11.502Z,100737.63
2022-11-07T03:06:40.707Z,100727.94
2022-11-07T03:09:09.654Z,100729.72
2022-11-07T03:11:39.395Z,100732.34
2022-11-07T03:14:08.502Z,100734.06
2022-11-07T03:16:39.238Z,100733.19
2022-11-07T03:19:08.439Z,100728.78
2022-11-07T03:21:37.649Z,100733.16
2022-11-07T03:24:07.235Z,100733.16
2022-11-07T03:26:36.294Z,100737.56
2022-11-07T03:29:06.278Z,100742.81
2022-11-07T03:31:35.627Z,100740.16
2022-11-07T03:34:06.120Z,100729.56
2022-11-07T03:36:35.596Z,100729.53
2022-11-07T03:39:04.695Z,100731.28
2022-11-07T03:41:33.908Z,100725.09
2022-11-07T03:44:02.914Z,100712.72
2022-11-07T03:46:32.141Z,100715.34
2022-11-07T03:49:01.252Z,100708.28
2022-11-07T03:51:31.839Z,100710.00
2022-11-07T03:54:00.921Z,100709.97
2022-11-07T03:56:30.154Z,100703.78
2022-11-07T03:58:59.224Z,100711.69
2022-11-07T04:01:28.729Z,100704.59
2022-11-07T04:03:57.890Z,100700.16
2022-11-07T04:06:27.147Z,100699.28
2022-11-07T04:08:57.894Z,100696.56
2022-11-07T04:11:44.979Z,100689.50
2022-11-07T04:14:31.877Z,100690.41
2022-11-07T04:17:18.485Z,100694.78
2022-11-07T04:19:48.393Z,100692.97
2022-11-07T04:22:17.777Z,100691.22
2022-11-07T04:24:48.442Z,100688.56
2022-11-07T04:27:36.296Z,100685.91
2022-11-07T04:30:20.107Z,100693.81
2022-11-07T04:32:51.274Z,100679.72
2022-11-07T04:35:21.408Z,100682.38
2022-11-07T04:37:51.155Z,100663.84
2022-11-07T04:40:22.498Z,100661.19
2022-11-07T04:42:52.118Z,100670.88
2022-11-07T04:45:21.163Z,100651.47
2022-11-07T04:47:50.978Z,100649.69
2022-11-07T04:50:21.368Z,100651.47
2022-11-07T04:52:50.753Z,100641.75
2022-11-07T04:55:23.536Z,100643.53
2022-11-07T04:57:53.432Z,100633.81
2022-11-07T05:00:23.237Z,100626.81
2022-11-07T05:02:54.394Z,100632.97
2022-11-07T05:05:23.876Z,100614.44
2022-11-07T05:07:53.454Z,100618.00
2022-11-07T05:10:26.161Z,100612.72
2022-11-07T05:12:56.601Z,100621.53
2022-11-07T05:15:25.948Z,100618.06
2022-11-07T05:17:56.181Z,100605.75
2022-11-07T05:20:30.898Z,100617.19
2022-11-07T05:23:18.017Z,100626.06
2022-11-07T05:25:50.859Z,100619.00
2022-11-07T05:28:29.972Z,100622.53
2022-11-07T05:31:04.735Z,100614.59
2022-11-07T05:33:34.389Z,100625.16
2022-11-07T05:36:14.412Z,100613.69
2022-11-07T05:38:45.703Z,100620.72
2022-11-07T05:41:17.539Z,100613.63
2022-11-07T05:43:48.260Z,100610.06
2022-11-07T05:46:17.616Z,100616.22
2022-11-07T05:48:46.877Z,100629.41
2022-11-07T05:51:15.912Z,100627.59
2022-11-07T05:53:45.169Z,100630.19
2022-11-07T05:56:15.473Z,100613.41
2022-11-07T05:58:45.320Z,100614.22
2022-11-07T06:01:14.236Z,100622.06
2022-11-07T06:03:43.613Z,100622.91
2022-11-07T06:06:12.569Z,100629.91
2022-11-07T06:08:41.922Z,100620.13
2022-11-07T06:11:10.865Z,100617.44
2022-11-07T06:13:41.930Z,100628.84
2022-11-07T06:16:11.487Z,100625.28
2022-11-07T06:18:41.957Z,100626.97
2022-11-07T06:21:11.057Z,100628.69
2022-11-07T06:23:40.367Z,100618.06
2022-11-07T06:26:09.674Z,100620.63
2022-11-07T06:28:40.396Z,100621.47
2022-11-07T06:31:09.658Z,100617.03
2022-11-07T06:33:38.892Z,100611.66
2022-11-07T06:36:10.303Z,100608.13
2022-11-07T06:38:40.517Z,100608.03
2022-11-07T06:41:12.200Z,100610.66
2022-11-07T06:43:43.243Z,100615.91
2022-11-07T06:46:14.644Z,100623.78
2022-11-07T06:48:44.132Z,100629.03
2022-11-07T06:51:13.898Z,100635.13
2022-11-07T06:53:43.310Z,100637.75
2022-11-07T06:56:15.876Z,100639.47
2022-11-07T06:58:46.719Z,100639.38
2022-11-07T07:01:16.647Z,100625.22
2022-11-07T07:03:46.182Z,100629.59
2022-11-07T07:06:16.686Z,100623.38
2022-11-07T07:08:47.067Z,100633.00
2022-11-07T07:11:16.232Z,100628.53
2022-11-07T07:13:46.802Z,100628.53
2022-11-07T07:16:16.155Z,100624.91
2022-11-07T07:18:46.496Z,100616.97
2022-11-07T07:21:16.391Z,100621.31
2022-11-07T07:23:45.739Z,100614.22
2022-11-07T07:26:16.057Z,100623.00
2022-11-07T07:28:47.212Z,100621.19
2022-11-07T07:31:24.042Z,100611.44
2022-11-07T07:33:53.464Z,100607.81
2022-11-07T07:36:22.748Z,100616.66
2022-11-07T07:38:52.643Z,100609.53
2022-11-07T07:41:22.281Z,100608.56
2022-11-07T07:43:53.311Z,100610.28
2022-11-07T07:46:24.487Z,100610.25
2022-11-07T07:48:53.991Z,100610.19
2022-11-07T07:51:22.907Z,100606.63
2022-11-07T07:53:52.362Z,100595.97
2022-11-07T07:56:21.459Z,100596.78
2022-11-07T07:58:52.300Z,100595.81
2022-11-07T08:01:21.546Z,100604.56
2022-11-07T08:04:01.379Z,100600.09
2022-11-07T08:06:32.494Z,100601.81
2022-11-07T08:09:01.805Z,100592.94
2022-11-07T08:11:30.866Z,100580.47
2022-11-07T08:14:01.986Z,100586.56
2022-11-07T08:16:31.217Z,100581.19
2022-11-07T08:19:00.456Z,100580.25
2022-11-07T08:21:29.464Z,100569.59
2022-11-07T08:23:58.823Z,100579.22
2022-11-07T08:26:27.848Z,100581.81
2022-11-07T08:28:57.269Z,100587.91
2022-11-07T08:31:27.667Z,100583.44
2022-11-07T08:33:59.608Z,100589.56
2022-11-07T08:36:29.272Z,100586.91
2022-11-07T08:38:58.762Z,100590.41
2022-11-07T08:41:27.751Z,100589.47
2022-11-07T08:43:57.090Z,100589.44
2022-11-07T08:46:27.422Z,100583.22
2022-11-07T08:48:57.065Z,100585.81
2022-11-07T08:51:25.996Z,100589.31
2022-11-07T08:53:55.405Z,100594.53
2022-11-07T08:56:24.415Z,100588.22
2022-11-07T08:58:53.668Z,100595.13
2022-11-07T09:01:23.022Z,100586.13
2022-11-07T09:03:58.056Z,100589.50
2022-11-07T09:06:27.701Z,100593.75
2022-11-07T09:08:56.911Z,100602.44
2022-11-07T09:11:28.505Z,100596.91
2022-11-07T09:13:58.060Z,100611.84
2022-11-07T09:16:27.015Z,100601.97
2022-11-07T09:18:57.764Z,100594.78
2022-11-07T09:21:26.699Z,100607.09
2022-11-07T09:23:55.980Z,100604.31
2022-11-07T09:26:25.259Z,100595.34
2022-11-07T09:29:00.936Z,100589.06
2022-11-07T09:31:31.546Z,100598.66
2022-11-07T09:34:02.334Z,100590.56
2022-11-07T09:36:31.737Z,100593.09
2022-11-07T09:39:01.359Z,100595.63
2022-11-07T09:41:41.347Z,100591.03
2022-11-07T09:44:37.367Z,100590.97
2022-11-07T09:47:17.195Z,100582.81
2022-11-07T09:49:51.099Z,100589.78
2022-11-07T09:52:27.088Z,100585.28
2022-11-07T09:55:04.081Z,100594.91
2022-11-07T09:57:37.216Z,100590.41
2022-11-07T10:00:11.460Z,100574.38
2022-11-07T10:02:46.263Z,100583.13
2022-11-07T10:05:20.102Z,100579.56
2022-11-07T10:07:59.756Z,100572.44
2022-11-07T10:10:38.265Z,100574.13
2022-11-07T10:13:25.654Z,100576.78
2022-11-07T10:16:06.365Z,100582.09
2022-11-07T10:18:47.762Z,100567.88
2022-11-07T10:21:42.548Z,100566.84
2022-11-07T10:24:25.263Z,100566.78
2022-11-07T10:26:55.183Z,100561.38
2022-11-07T10:29:26.710Z,100567.47
2022-11-07T10:32:01.305Z,100577.09
2022-11-07T10:34:35.885Z,100570.63
2022-11-07T10:37:07.759Z,100570.56
2022-11-07T10:39:36.985Z,100565.97
2022-11-07T10:42:10.649Z,100564.88
2022-11-07T10:44:43.191Z,100557.72
2022-11-07T10:47:19.972Z,100561.00
2022-11-07T10:49:57.801Z,100572.31
2022-11-07T10:52:29.822Z,100566.66
2022-11-07T10:55:10.893Z,100553.25
2022-11-07T10:57:40.469Z,100560.16
2022-11-07T11:00:25.499Z,100559.84
2022-11-07T11:02:56.229Z,100561.53
2022-11-07T11:05:28.670Z,100561.38
2022-11-07T11:08:14.595Z,100558.56
2022-11-07T11:10:44.092Z,100558.25
2022-11-07T11:13:28.306Z,100571.38
2022-11-07T11:16:05.239Z,100562.28
2022-11-07T11:18:35.221Z,100567.34
2022-11-07T11:21:06.911Z,100563.53
2022-11-07T11:23:42.964Z,100565.16
2022-11-07T11:26:32.592Z,100556.94
2022-11-07T11:29:06.387Z,100562.13
2022-11-07T11:31:38.300Z,100560.09
2022-11-07T11:34:18.063Z,100553.69
2022-11-07T11:36:52.970Z,100550.72
2022-11-07T11:39:30.715Z,100545.31
2022-11-07T11:42:00.588Z,100552.41
2022-11-07T11:44:38.344Z,100544.28
2022-11-07T11:47:14.448Z,100549.44
2022-11-07T11:49:48.804Z,100541.44
2022-11-07T11:52:20.847Z,100552.91
2022-11-07T11:54:53.902Z,100549.19
2022-11-07T11:57:28.219Z,100541.03
2022-11-07T12:00:10.520Z,100536.50
2022-11-07T12:03:07.183Z,100545.31
2022-11-07T12:06:00.389Z,100535.34
2022-11-07T12:08:43.983Z,100530.72
2022-11-07T12:11:28.244Z,100538.50
2022-11-07T12:14:07.681Z,100541.91
2022-11-07T12:16:42.397Z,100537.31
2022-11-07T12:19:22.091Z,100534.47
2022-11-07T12:22:02.426Z,100535.34
2022-11-07T12:24:43.482Z,100534.41
2022-11-07T12:27:27.135Z,100540.56
2022-11-07T12:30:07.871Z,100539.59
2022-11-07T12:32:50.645Z,100538.56
2022-11-07T12:35:38.294Z,100547.19
2022-11-07T12:38:46.249Z,100544.50
2022-11-07T12:41:25.807Z,100552.38
2022-11-07T12:44:15.300Z,100560.25
2022-11-07T12:46:51.599Z,100557.44
2022-11-07T12:49:48.876Z,100556.47
2022-11-07T12:52:32.521Z,100557.34
2022-11-07T12:55:05.590Z,100567.03
2022-11-07T12:57:38.996Z,100555.47
2022-11-07T13:00:23.400Z,100553.72
2022-11-07T13:03:24.104Z,100558.97
2022-11-07T13:06:04.820Z,100553.63
2022-11-07T13:08:38.288Z,100552.66
2022-11-07T13:11:18.286Z,100557.91
2022-11-07T13:13:56.245Z,100549.88
2022-11-07T13:16:29.175Z,100551.66
2022-11-07T13:19:09.304Z,100556.84
2022-11-07T13:21:43.016Z,100559.44
2022-11-07T13:24:23.114Z,100551.38
2022-11-07T13:26:52.583Z,100563.78
2022-11-07T13:29:27.479Z,100567.31
2022-11-07T13:32:10.620Z,100562.84
2022-11-07T13:34:56.563Z,100563.72
2022-11-07T13:37:30.875Z,100560.16
2022-11-07T13:40:05.957Z,100560.16
2022-11-07T13:42:38.539Z,100563.72
2022-11-07T13:45:19.933Z,100563.72
2022-11-07T13:47:53.343Z,100574.41
2022-11-07T13:50:34.593Z,100571.72
2022-11-07T13:53:11.080Z,100581.47
2022-11-07T13:55:48.086Z,100578.00
2022-11-07T13:58:20.164Z,100571.81
2022-11-07T14:00:49.565Z,100566.53
2022-11-07T14:03:29.281Z,100563.94
2022-11-07T14:05:58.610Z,100568.41
2022-11-07T14:08:33.050Z,100565.81
2022-11-07T14:11:02.311Z,100568.50
2022-11-07T14:13:39.786Z,100574.88
2022-11-07T14:16:21.071Z,100566.03
2022-11-07T14:18:58.407Z,100572.31
2022-11-07T14:21:29.578Z,100575.84
2022-11-07T14:23:59.850Z,100563.34
2022-11-07T14:26:30.893Z,100563.50
2022-11-07T14:29:01.262Z,100561.75
2022-11-07T14:31:31.974Z,100554.75
2022-11-07T14:34:09.409Z,100558.34
2022-11-07T14:36:38.583Z,100559.31
2022-11-07T14:39:15.584Z,100557.69
2022-11-07T14:41:46.878Z,100549.84
2022-11-07T14:44:20.107Z,100557.16
2022-11-07T14:46:49.848Z,100574.28
2022-11-07T14:49:26.809Z,100568.25
2022-11-07T14:51:57.273Z,100584.38
2022-11-07T14:54:32.817Z,100583.72
2022-11-07T14:57:02.807Z,100573.28
2022-11-07T14:59:35.449Z,100585.09
2022-11-07T15:02:19.366Z,100585.31
2022-11-07T15:04:51.567Z,100585.56
2022-11-07T15:07:25.371Z,100590.25
2022-11-07T15:09:57.085Z,100594.78
2022-11-07T15:12:29.367Z,100593.31
2022-11-07T15:15:06.875Z,100591.72
2022-11-07T15:17:47.610Z,100597.28
2022-11-07T15:20:32.849Z,100593.94
2022-11-07T15:23:04.993Z,100593.25
2022-11-07T15:25:39.687Z,100589.94
2022-11-07T15:28:30.492Z,100591.88
2022-11-07T15:31:01.533Z,100592.97
2022-11-07T15:33:33.869Z,100601.13
2022-11-07T15:36:04.706Z,100599.50
2022-11-07T15:38:33.877Z,100600.53
2022-11-07T15:41:03.332Z,100593.59
2022-11-07T15:43:32.400Z,100590.19
2022-11-07T15:46:03.657Z,100599.19
2022-11-07T15:48:41.001Z,100603.75
2022-11-07T15:51:12.066Z,100604.75
2022-11-07T15:53:41.057Z,100609.34
2022-11-07T15:56:15.487Z,100605.84
2022-11-07T15:58:44.602Z,100613.78
2022-11-07T16:01:14.412Z,100613.84
2022-11-07T16:03:43.218Z,100612.09
2022-11-07T16:06:22.282Z,100614.88
2022-11-07T16:08:51.316Z,100614.88
2022-11-07T16:11:20.597Z,100611.31
2022-11-07T16:13:50.948Z,100620.19
2022-11-07T16:16:22.891Z,100621.94
2022-11-07T16:18:54.000Z,100617.41
2022-11-07T16:21:24.686Z,100619.13
2022-11-07T16:23:53.816Z,100621.69
2022-11-07T16:26:29.649Z,100628.75
2022-11-07T16:28:58.932Z,100634.03
2022-11-07T16:31:28.865Z,100633.09
2022-11-07T16:33:57.717Z,100640.19
2022-11-07T16:36:32.031Z,100648.13
2022-11-07T16:39:02.540Z,100642.75
2022-11-07T16:41:32.276Z,100648.88
2022-11-07T16:44:01.719Z,100644.44
2022-11-07T16:46:35.487Z,100642.53
2022-11-07T16:49:13.753Z,100633.63
2022-11-07T16:51:45.930Z,100633.50
2022-11-07T16:54:15.055Z,100631.66
2022-11-07T16:56:45.277Z,100624.59
2022-11-07T16:59:19.685Z,100631.63
2022-11-07T17:01:49.854Z,100629.88
2022-11-07T17:04:19.481Z,100632.50
2022-11-07T17:06:50.248Z,100638.69
2022-11-07T17:09:20.539Z,100644.97
2022-11-07T17:11:50.176Z,100651.16
2022-11-07T17:14:19.180Z,100647.63
2022-11-07T17:16:49.896Z,100645.84
2022-11-07T17:19:19.007Z,100654.69
2022-11-07T17:21:49.511Z,100655.56
2022-11-07T17:24:20.064Z,100658.13
2022-11-07T17:26:49.742Z,100650.94
2022-11-07T17:29:18.674Z,100651.78
2022-11-07T17:31:48.218Z,100655.25
2022-11-07T17:34:17.152Z,100650.75
2022-11-07T17:36:51.131Z,100657.72
2022-11-07T17:39:22.914Z,100642.53
2022-11-07T17:41:53.201Z,100655.78
2022-11-07T17:44:22.231Z,100652.16
2022-11-07T17:46:52.098Z,100655.66
2022-11-07T17:49:22.024Z,100655.59
2022-11-07T17:51:54.192Z,100658.22
2022-11-07T17:54:29.519Z,100661.72
2022-11-07T17:56:59.227Z,100655.44
2022-11-07T17:59:28.257Z,100662.53
2022-11-07T18:01:57.694Z,100666.00
2022-11-07T18:04:26.683Z,100657.06
2022-11-07T18:06:56.033Z,100662.41
2022-11-07T18:09:26.421Z,100653.50
2022-11-07T18:11:55.855Z,100651.69
2022-11-07T18:14:25.114Z,100649.88
2022-11-07T18:16:54.520Z,100648.09
2022-11-07T18:19:23.444Z,100647.19
2022-11-07T18:21:54.456Z,100646.31
2022-11-07T18:24:24.294Z,100652.53
2022-11-07T18:26:55.609Z,100647.22
2022-11-07T18:29:24.585Z,100649.03
2022-11-07T18:31:53.802Z,100648.16
2022-11-07T18:34:22.752Z,100651.72
2022-11-07T18:36:52.495Z,100644.53
2022-11-07T18:39:22.982Z,100653.56
2022-11-07T18:41:54.356Z,100644.66
2022-11-07T18:44:23.798Z,100650.00
2022-11-07T18:46:53.008Z,100637.59
2022-11-07T18:49:22.092Z,100639.44
2022-11-07T18:51:51.295Z,100641.19
2022-11-07T18:54:22.134Z,100634.91
2022-11-07T18:56:56.322Z,100646.41
2022-11-07T18:59:25.349Z,100643.78
2022-11-07T19:01:54.630Z,100650.00
2022-11-07T19:04:23.719Z,100650.88
2022-11-07T19:06:59.026Z,100646.38
2022-11-07T19:09:29.982Z,100637.50
2022-11-07T19:12:02.062Z,100642.81
2022-11-07T19:14:31.878Z,100643.72
2022-11-07T19:17:01.158Z,100646.31
2022-11-07T19:19:30.233Z,100641.88
2022-11-07T19:21:59.483Z,100638.31
2022-11-07T19:24:28.859Z,100634.75
2022-11-07T19:27:00.868Z,100641.94
2022-11-07T19:29:32.137Z,100633.94
2022-11-07T19:32:01.981Z,100632.16
2022-11-07T19:34:31.088Z,100641.06
2022-11-07T19:37:00.359Z,100641.94
2022-11-07T19:39:30.835Z,100647.28
2022-11-07T19:42:01.817Z,100640.97
2022-11-07T19:44:31.071Z,100638.31
2022-11-07T19:47:00.304Z,100641.78
2022-11-07T19:49:29.331Z,100642.66
2022-11-07T19:51:58.817Z,100643.34
2022-11-07T19:54:28.041Z,100642.50
2022-11-07T19:57:01.197Z,100637.94
2022-11-07T19:59:30.474Z,100646.69
2022-11-07T20:02:30.571Z,100641.31
2022-11-07T20:04:49.089Z,100644.78
2022-11-07T20:07:18.468Z,100647.41
2022-11-07T20:09:47.761Z,100641.19
2022-11-07T20:12:18.369Z,100645.53
2022-11-07T20:14:47.539Z,100647.34
2022-11-07T20:17:18.173Z,100642.88
2022-11-07T20:19:47.967Z,100635.78
2022-11-07T20:22:17.375Z,100635.78
2022-11-07T20:24:46.315Z,100642.00
2022-11-07T20:27:16.921Z,100641.13
2022-11-07T20:29:45.902Z,100640.31
2022-11-07T20:32:15.138Z,100641.25
2022-11-07T20:34:44.521Z,100644.81
2022-11-07T20:37:16.666Z,100643.16
2022-11-07T20:39:47.000Z,100647.56
2022-11-07T20:42:18.071Z,100644.06
2022-11-07T20:44:48.346Z,100650.28
2022-11-07T20:47:17.915Z,100655.63
2022-11-07T20:49:46.877Z,100648.59
2022-11-07T20:52:16.135Z,100658.38
2022-11-07T20:54:45.595Z,100655.78
2022-11-07T20:57:18.023Z,100655.84
2022-11-07T20:59:47.097Z,100650.59
2022-11-07T21:02:18.107Z,100647.94
2022-11-07T21:05:11.219Z,100650.66
2022-11-07T21:07:37.463Z,100656.88
2022-11-07T21:10:07.224Z,100650.69
2022-11-07T21:12:40.359Z,100644.53
2022-11-07T21:15:10.561Z,100649.88
2022-11-07T21:17:41.009Z,100648.97
2022-11-07T21:20:11.021Z,100648.91
2022-11-07T21:22:40.894Z,100643.69
2022-11-07T21:25:10.877Z,100651.69
2022-11-07T21:27:41.536Z,100656.16
2022-11-07T21:30:12.428Z,100657.06
2022-11-07T21:32:42.232Z,100652.59
2022-11-07T21:35:11.551Z,100660.69
2022-11-07T21:37:40.708Z,100652.66
2022-11-07T21:40:10.934Z,100653.59
2022-11-07T21:42:42.036Z,100648.38
2022-11-07T21:45:12.227Z,100650.22
2022-11-07T21:47:45.721Z,100654.69
2022-11-07T21:50:42.823Z,100664.47
2022-11-07T21:53:07.051Z,100662.75
2022-11-07T21:55:36.698Z,100650.31
2022-11-07T21:58:07.429Z,100650.44
2022-11-07T22:00:37.154Z,100662.81
2022-11-07T22:03:06.534Z,100659.34
2022-11-07T22:05:39.235Z,100655.84
2022-11-07T22:08:08.591Z,100655.94
2022-11-07T22:10:38.248Z,100655.09
2022-11-07T22:13:09.391Z,100656.94
2022-11-07T22:15:38.520Z,100655.19
2022-11-07T22:18:08.058Z,100651.66
2022-11-07T22:20:39.716Z,100647.25
2022-11-07T22:23:09.118Z,100646.38
2022-11-07T22:25:38.064Z,100649.00
2022-11-07T22:28:08.972Z,100652.59
2022-11-07T22:30:39.199Z,100649.94
2022-11-07T22:33:08.555Z,100649.03
2022-11-07T22:35:37.595Z,100653.41
2022-11-07T22:38:06.948Z,100656.91
2022-11-07T22:40:35.942Z,100658.75
2022-11-07T22:43:05.261Z,100663.13
2022-11-07T22:45:39.187Z,100659.63
2022-11-07T22:48:09.553Z,100664.00
2022-11-07T22:50:38.752Z,100662.28
2022-11-07T22:53:07.984Z,100663.03
2022-11-07T22:55:37.763Z,100671.91
2022-11-07T22:58:07.475Z,100671.03
2022-11-07T23:00:37.795Z,100670.09
2022-11-07T23:03:07.864Z,100666.53
2022-11-07T23:05:36.998Z,100666.53
2022-11-07T23:08:06.440Z,100675.34
2022-11-07T23:10:35.621Z,100669.09
2022-11-07T23:13:04.958Z,100674.44
2022-11-07T23:15:34.361Z,100673.63
2022-11-07T23:18:05.171Z,100677.19
2022-11-07T23:20:52.452Z,100674.53
2022-11-07T23:23:21.755Z,100674.53
2022-11-07T23:25:50.685Z,100677.19
2022-11-07T23:28:20.466Z,100670.09
2022-11-07T23:30:52.982Z,100668.38
2022-11-07T23:33:23.715Z,100681.63
2022-11-07T23:35:53.559Z,100681.69
2022-11-07T23:38:26.298Z,100688.75
2022-11-07T23:40:55.602Z,100686.97
2022-11-07T23:43:25.220Z,100692.31
2022-11-07T23:46:11.296Z,100684.22
2022-11-07T23:48:59.555Z,100696.50
2022-11-07T23:51:28.857Z,100688.47
2022-11-07T23:54:15.558Z,100698.09
2022-11-07T23:56:45.226Z,100696.25
2022-11-07T23:59:32.222Z,100701.44
